createdAt,value
2022-08-05T00:01:36.467Z,100.00
2022-08-05T00:04:19.016Z,100.00
2022-08-05T00:06:51.567Z,100.00
2022-08-05T00:09:22.329Z,100.00
2022-08-05T00:11:56.117Z,100.00
2022-08-05T00:14:29.340Z,100.00
2022-08-05T00:17:01.844Z,100.00
2022-08-05T00:19:33.305Z,100.00
2022-08-05T00:22:11.277Z,100.00
2022-08-05T00:24:42.403Z,100.00
2022-08-05T00:27:14.133Z,100.00
2022-08-05T00:29:46.050Z,100.00
2022-08-05T00:32:17.585Z,100.00
2022-08-05T00:35:04.465Z,100.00
2022-08-05T00:37:53.117Z,100.00
2022-08-05T00:40:26.945Z,100.00
2022-08-05T00:43:01.169Z,100.00
2022-08-05T00:45:42.905Z,100.00
2022-08-05T00:48:14.112Z,100.00
2022-08-05T00:50:46.104Z,100.00
2022-08-05T00:54:01.084Z,100.00
2022-08-05T00:56:08.016Z,100.00
2022-08-05T00:58:38.942Z,100.00
2022-08-05T01:01:11.648Z,100.00
2022-08-05T01:03:41.870Z,100.00
2022-08-05T01:06:15.529Z,100.00
2022-08-05T01:08:47.234Z,100.00
2022-08-05T01:11:22.484Z,100.00
2022-08-05T01:14:08.974Z,100.00
2022-08-05T01:16:48.701Z,100.00
2022-08-05T01:19:36.755Z,100.00
2022-08-05T01:22:24.151Z,100.00
2022-08-05T01:25:17.445Z,100.00
2022-08-05T01:28:28.569Z,100.00
2022-08-05T01:31:03.933Z,100.00
2022-08-05T01:33:36.297Z,100.00
2022-08-05T01:36:12.895Z,100.00
2022-08-05T01:38:45.959Z,100.00
2022-08-05T01:41:21.058Z,100.00
2022-08-05T01:43:52.814Z,100.00
2022-08-05T01:46:41.591Z,100.00
2022-08-05T01:49:24.131Z,100.00
2022-08-05T01:51:58.472Z,100.00
2022-08-05T01:54:45.739Z,100.00
2022-08-05T01:58:11.775Z,100.00
2022-08-05T02:00:11.896Z,100.00
2022-08-05T02:02:55.092Z,100.00
2022-08-05T02:05:25.456Z,100.00
2022-08-05T02:08:01.366Z,100.00
2022-08-05T02:10:34.922Z,100.00
2022-08-05T02:13:16.269Z,100.00
2022-08-05T02:15:53.096Z,100.00
2022-08-05T02:18:33.342Z,100.00
2022-08-05T02:21:15.191Z,100.00
2022-08-05T02:23:45.073Z,100.00
2022-08-05T02:26:14.875Z,100.00
2022-08-05T02:28:48.060Z,100.00
2022-08-05T02:31:23.583Z,100.00
2022-08-05T02:33:57.863Z,100.00
2022-08-05T02:36:31.623Z,100.00
2022-08-05T02:39:02.062Z,100.00
2022-08-05T02:41:42.976Z,100.00
2022-08-05T02:44:21.189Z,100.00
2022-08-05T02:46:58.652Z,100.00
2022-08-05T02:49:36.773Z,100.00
2022-08-05T02:52:09.266Z,100.00
2022-08-05T02:54:42.308Z,100.00
2022-08-05T02:58:10.335Z,100.00
2022-08-05T03:00:10.222Z,100.00
2022-08-05T03:02:42.861Z,100.00
2022-08-05T03:05:12.930Z,100.00
2022-08-05T03:08:06.838Z,100.00
2022-08-05T03:10:31.428Z,100.00
2022-08-05T03:15:27.947Z,100.00
2022-08-05T03:17:59.478Z,100.00
2022-08-05T03:20:28.609Z,100.00
2022-08-05T03:22:58.178Z,100.00
2022-08-05T03:25:33.016Z,100.00
2022-08-05T03:28:04.359Z,100.00
2022-08-05T03:30:34.376Z,100.00
2022-08-05T03:33:07.350Z,100.00
2022-08-05T03:35:41.181Z,100.00
2022-08-05T03:38:14.690Z,100.00
2022-08-05T03:40:45.183Z,100.00
2022-08-05T03:44:08.240Z,100.00
2022-08-05T03:46:08.230Z,100.00
2022-08-05T03:48:38.651Z,100.00
2022-08-05T03:52:39.069Z,100.00
2022-08-05T03:55:53.478Z,100.00
2022-08-05T03:56:59.881Z,100.00
2022-08-05T03:59:47.492Z,100.00
2022-08-05T04:02:38.681Z,100.00
2022-08-05T04:05:23.082Z,100.00
2022-08-05T04:07:58.323Z,100.00
2022-08-05T04:10:31.985Z,100.00
2022-08-05T04:13:06.974Z,100.00
2022-08-05T04:15:36.775Z,100.00
2022-08-05T04:18:07.874Z,100.00
2022-08-05T04:20:41.382Z,100.00
2022-08-05T04:23:12.635Z,100.00
2022-08-05T04:26:00.362Z,100.00
2022-08-05T04:28:30.770Z,100.00
2022-08-05T04:31:01.697Z,100.00
2022-08-05T04:34:17.711Z,100.00
2022-08-05T04:36:49.608Z,100.00
2022-08-05T04:39:16.113Z,100.00
2022-08-05T04:41:44.906Z,100.00
2022-08-05T04:44:20.969Z,100.00
2022-08-05T04:46:50.595Z,100.00
2022-08-05T04:49:24.731Z,100.00
2022-08-05T04:52:08.763Z,100.00
2022-08-05T04:54:37.621Z,100.00
2022-08-05T04:57:06.601Z,100.00
2022-08-05T04:59:39.232Z,100.00
2022-08-05T05:02:37.281Z,100.00
2022-08-05T05:05:03.066Z,100.00
2022-08-05T05:07:35.550Z,100.00
2022-08-05T05:10:06.673Z,100.00
2022-08-05T05:12:36.843Z,100.00
2022-08-05T05:15:10.886Z,100.00
2022-08-05T05:17:55.887Z,100.00
2022-08-05T05:20:28.259Z,100.00
2022-08-05T05:22:59.293Z,100.00
2022-08-05T05:25:32.598Z,100.00
2022-08-05T05:28:02.070Z,100.00
2022-08-05T05:30:33.389Z,100.00
2022-08-05T05:33:15.844Z,100.00
2022-08-05T05:35:47.373Z,100.00
2022-08-05T05:38:22.911Z,100.00
2022-08-05T05:40:56.433Z,100.00
2022-08-05T05:43:57.014Z,100.00
2022-08-05T05:46:17.372Z,100.00
2022-08-05T05:48:48.980Z,100.00
2022-08-05T05:51:21.563Z,100.00
2022-08-05T05:53:57.942Z,100.00
2022-08-05T05:56:31.549Z,100.00
2022-08-05T05:59:05.145Z,100.00
2022-08-05T06:01:37.417Z,100.00
2022-08-05T06:04:11.387Z,100.00
2022-08-05T06:06:42.885Z,100.00
2022-08-05T06:09:17.086Z,100.00
2022-08-05T06:12:00.990Z,100.00
2022-08-05T06:14:31.430Z,100.00
2022-08-05T06:17:02.275Z,100.00
2022-08-05T06:19:57.162Z,100.00
2022-08-05T06:22:29.615Z,100.00
2022-08-05T06:25:00.418Z,100.00
2022-08-05T06:28:11.340Z,100.00
2022-08-05T06:30:21.175Z,100.00
2022-08-05T06:32:50.990Z,100.00
2022-08-05T06:36:03.017Z,100.00
2022-08-05T06:38:11.403Z,100.00
2022-08-05T06:40:44.710Z,100.00
2022-08-05T06:43:58.246Z,100.00
2022-08-05T06:46:06.889Z,100.00
2022-08-05T06:48:53.009Z,100.00
2022-08-05T06:51:30.235Z,100.00
2022-08-05T06:54:01.929Z,100.00
2022-08-05T06:56:34.928Z,100.00
2022-08-05T06:59:09.754Z,100.00
2022-08-05T07:01:42.330Z,100.00
2022-08-05T07:04:13.889Z,100.00
2022-08-05T07:06:43.219Z,100.00
2022-08-05T07:09:11.926Z,100.00
2022-08-05T07:11:49.489Z,100.00
2022-08-05T07:14:37.966Z,100.00
2022-08-05T07:18:00.304Z,100.00
2022-08-05T07:22:45.842Z,100.00
2022-08-05T07:25:54.332Z,100.00
2022-08-05T07:28:11.540Z,100.00
2022-08-05T07:30:40.833Z,100.00
2022-08-05T07:33:16.204Z,100.00
2022-08-05T07:36:01.875Z,100.00
2022-08-05T07:38:43.075Z,100.00
2022-08-05T07:42:09.547Z,100.00
2022-08-05T07:44:05.396Z,100.00
2022-08-05T07:46:34.646Z,100.00
2022-08-05T07:49:06.252Z,100.00
2022-08-05T07:51:40.896Z,100.00
2022-08-05T07:54:18.862Z,100.00
2022-08-05T07:57:01.237Z,100.00
2022-08-05T07:59:40.931Z,100.00
2022-08-05T08:02:16.416Z,100.00
2022-08-05T08:04:48.749Z,100.00
2022-08-05T08:07:22.011Z,100.00
2022-08-05T08:09:55.052Z,100.00
2022-08-05T08:12:36.824Z,100.00
2022-08-05T08:15:15.605Z,100.00
2022-08-05T08:17:50.774Z,100.00
2022-08-05T08:20:59.752Z,100.00
2022-08-05T08:24:02.938Z,100.00
2022-08-05T08:26:02.833Z,100.00
2022-08-05T08:28:36.831Z,100.00
2022-08-05T08:31:15.044Z,100.00
2022-08-05T08:33:51.674Z,100.00
2022-08-05T08:36:38.474Z,100.00
2022-08-05T08:39:15.605Z,100.00
2022-08-05T08:41:52.511Z,100.00
2022-08-05T08:45:16.543Z,100.00
2022-08-05T08:48:05.836Z,100.00
2022-08-05T08:51:03.524Z,100.00
2022-08-05T08:53:08.214Z,100.00
2022-08-05T08:56:05.231Z,100.00
2022-08-05T08:58:37.578Z,100.00
2022-08-05T09:01:18.078Z,100.00
2022-08-05T09:03:54.362Z,100.00
2022-08-05T09:06:29.620Z,100.00
2022-08-05T09:09:01.513Z,100.00
2022-08-05T09:11:51.449Z,100.00
2022-08-05T09:14:58.533Z,100.00
2022-08-05T09:17:40.776Z,100.00
2022-08-05T09:20:02.807Z,100.00
2022-08-05T09:23:09.292Z,100.00
2022-08-05T09:26:01.996Z,100.00
2022-08-05T09:28:31.842Z,100.00
2022-08-05T09:31:22.808Z,100.00
2022-08-05T09:33:56.231Z,100.00
2022-08-05T09:36:33.436Z,100.00
2022-08-05T09:39:16.460Z,100.00
2022-08-05T09:42:00.703Z,100.00
2022-08-05T09:44:37.899Z,100.00
2022-08-05T09:47:12.783Z,95.05
2022-08-05T09:50:01.336Z,97.27
2022-08-05T09:52:36.310Z,85.29
2022-08-05T09:55:56.084Z,65.19
2022-08-05T09:58:11.900Z,60.46
2022-08-05T10:00:40.782Z,51.03
2022-08-05T10:03:12.719Z,51.42
2022-08-05T10:05:42.331Z,59.89
2022-08-05T10:08:37.726Z,56.59
2022-08-05T10:11:01.209Z,55.52
2022-08-05T10:13:47.835Z,48.39
2022-08-05T10:16:32.102Z,40.91
2022-08-05T10:19:08.624Z,55.08
2022-08-05T10:21:40.949Z,62.13
2022-08-05T10:24:13.778Z,59.42
2022-08-05T10:26:49.205Z,64.57
2022-08-05T10:29:23.913Z,63.50
2022-08-05T10:32:53.218Z,50.71
2022-08-05T10:35:04.115Z,41.02
2022-08-05T10:37:44.349Z,52.97
2022-08-05T10:40:28.218Z,59.46
2022-08-05T10:43:01.026Z,46.58
2022-08-05T10:45:40.256Z,44.47
2022-08-05T10:48:38.377Z,45.18
2022-08-05T10:51:28.850Z,46.43
2022-08-05T10:54:01.031Z,50.03
2022-08-05T10:56:45.249Z,48.70
2022-08-05T11:00:03.581Z,40.76
2022-08-05T11:02:14.562Z,31.05
2022-08-05T11:05:00.969Z,30.42
2022-08-05T11:07:33.016Z,35.68
2022-08-05T11:10:27.119Z,37.44
2022-08-05T11:13:01.121Z,37.38
2022-08-05T11:15:59.044Z,35.97
2022-08-05T11:18:30.074Z,42.48
2022-08-05T11:21:02.894Z,50.42
2022-08-05T11:24:04.207Z,45.25
2022-08-05T11:26:34.825Z,37.31
2022-08-05T11:29:12.903Z,31.79
2022-08-05T11:31:57.114Z,46.04
2022-08-05T11:34:50.858Z,54.89
2022-08-05T11:38:28.577Z,62.77
2022-08-05T11:41:34.226Z,65.30
2022-08-05T11:44:05.025Z,57.03
2022-08-05T11:47:09.488Z,60.07
2022-08-05T11:49:34.158Z,60.10
2022-08-05T11:52:11.451Z,53.74
2022-08-05T11:54:43.430Z,47.89
2022-08-05T11:57:25.195Z,55.78
2022-08-05T11:59:55.899Z,59.14
2022-08-05T12:02:33.038Z,60.22
2022-08-05T12:05:06.805Z,48.68
2022-08-05T12:08:03.609Z,43.89
2022-08-05T12:10:43.793Z,50.08
2022-08-05T12:13:18.843Z,50.56
2022-08-05T12:16:14.923Z,56.06
2022-08-05T12:18:49.086Z,63.86
2022-08-05T12:21:26.920Z,66.41
2022-08-05T12:24:04.864Z,67.52
2022-08-05T12:26:36.100Z,67.67
2022-08-05T12:29:09.370Z,63.03
2022-08-05T12:31:41.532Z,65.91
2022-08-05T12:34:21.604Z,61.92
2022-08-05T12:36:55.067Z,69.54
2022-08-05T12:39:34.539Z,69.21
2022-08-05T12:42:14.621Z,67.21
2022-08-05T12:44:46.057Z,58.31
2022-08-05T12:47:30.692Z,51.74
2022-08-05T12:50:05.970Z,48.47
2022-08-05T12:52:39.060Z,54.53
2022-08-05T12:55:22.045Z,53.62
2022-08-05T12:58:38.364Z,42.49
2022-08-05T13:02:02.594Z,37.76
2022-08-05T13:03:39.057Z,42.11
2022-08-05T13:06:14.215Z,54.05
2022-08-05T13:08:50.767Z,51.94
2022-08-05T13:12:01.286Z,50.10
2022-08-05T13:14:24.680Z,61.53
2022-08-05T13:17:08.954Z,55.14
2022-08-05T13:19:50.946Z,49.58
2022-08-05T13:22:28.314Z,49.41
2022-08-05T13:25:05.445Z,62.56
2022-08-05T13:27:39.476Z,59.47
2022-08-05T13:30:34.415Z,58.18
2022-08-05T13:33:01.498Z,62.65
2022-08-05T13:35:42.724Z,62.65
2022-08-05T13:38:28.088Z,54.91
2022-08-05T13:41:00.483Z,60.19
2022-08-05T13:43:44.989Z,65.17
2022-08-05T13:46:30.778Z,65.50
2022-08-05T13:49:10.367Z,59.49
2022-08-05T13:51:46.513Z,65.04
2022-08-05T13:54:21.190Z,71.92
2022-08-05T13:56:54.661Z,69.98
2022-08-05T13:59:27.438Z,69.08
2022-08-05T14:02:00.527Z,64.04
2022-08-05T14:04:49.827Z,57.33
2022-08-05T14:07:25.604Z,52.76
2022-08-05T14:10:13.602Z,50.41
2022-08-05T14:12:48.809Z,63.44
2022-08-05T14:16:04.312Z,59.65
2022-08-05T14:18:15.283Z,65.71
2022-08-05T14:20:48.581Z,72.50
2022-08-05T14:23:23.808Z,73.13
2022-08-05T14:25:59.047Z,70.68
2022-08-05T14:28:29.711Z,69.81
2022-08-05T14:30:59.458Z,64.98
2022-08-05T14:33:32.533Z,70.67
2022-08-05T14:36:21.524Z,67.58
2022-08-05T14:38:51.345Z,76.24
2022-08-05T14:41:21.516Z,83.07
2022-08-05T14:43:57.732Z,83.57
2022-08-05T14:46:31.913Z,76.47
2022-08-05T14:49:07.265Z,71.51
2022-08-05T14:51:37.816Z,72.12
2022-08-05T14:54:27.982Z,73.19
2022-08-05T14:57:00.734Z,74.54
2022-08-05T14:59:35.687Z,74.85
2022-08-05T15:02:15.820Z,71.01
2022-08-05T15:04:47.684Z,75.51
2022-08-05T15:08:12.140Z,77.43
2022-08-05T15:10:09.851Z,81.37
2022-08-05T15:12:59.638Z,82.00
2022-08-05T15:15:54.189Z,81.45
2022-08-05T15:18:18.826Z,71.27
2022-08-05T15:20:47.767Z,71.98
2022-08-05T15:23:16.904Z,71.45
2022-08-05T15:25:52.679Z,75.74
2022-08-05T15:28:27.444Z,75.76
2022-08-05T15:30:57.545Z,75.33
2022-08-05T15:34:18.457Z,76.41
2022-08-05T15:36:17.237Z,69.03
2022-08-05T15:40:58.278Z,68.72
2022-08-05T15:41:58.420Z,64.77
2022-08-05T15:44:30.337Z,60.69
2022-08-05T15:46:59.427Z,59.55
2022-08-05T15:49:47.938Z,58.93
2022-08-05T15:52:51.967Z,65.13
2022-08-05T15:55:07.474Z,76.91
2022-08-05T15:57:39.101Z,74.48
2022-08-05T16:00:12.153Z,67.23
2022-08-05T16:02:48.164Z,64.61
2022-08-05T16:05:17.155Z,66.17
2022-08-05T16:07:50.621Z,68.09
2022-08-05T16:10:25.325Z,59.65
2022-08-05T16:12:55.917Z,55.40
2022-08-05T16:15:32.732Z,55.71
2022-08-05T16:18:04.257Z,58.02
2022-08-05T16:20:33.287Z,61.45
2022-08-05T16:23:03.837Z,62.31
2022-08-05T16:25:34.672Z,60.76
2022-08-05T16:28:05.843Z,61.64
2022-08-05T16:30:36.969Z,65.09
2022-08-05T16:33:06.071Z,64.52
2022-08-05T16:35:43.029Z,65.61
2022-08-05T16:38:18.486Z,64.77
2022-08-05T16:40:55.588Z,60.85
2022-08-05T16:43:31.579Z,55.36
2022-08-05T16:46:24.584Z,59.23
2022-08-05T16:48:53.816Z,70.60
2022-08-05T16:51:24.813Z,71.50
2022-08-05T16:54:03.125Z,72.59
2022-08-05T16:56:41.789Z,66.20
2022-08-05T16:59:11.858Z,57.73
2022-08-05T17:01:54.348Z,63.22
2022-08-05T17:04:27.470Z,58.53
2022-08-05T17:07:01.070Z,52.17
2022-08-05T17:09:55.949Z,47.63
2022-08-05T17:12:22.349Z,50.27
2022-08-05T17:14:51.591Z,52.31
2022-08-05T17:17:22.507Z,54.22
2022-08-05T17:19:55.408Z,55.89
2022-08-05T17:22:25.942Z,56.68
2022-08-05T17:24:57.662Z,53.96
2022-08-05T17:27:33.902Z,55.84
2022-08-05T17:30:11.919Z,56.34
2022-08-05T17:32:42.714Z,57.51
2022-08-05T17:35:12.636Z,59.88
2022-08-05T17:37:45.422Z,62.84
2022-08-05T17:40:22.501Z,68.92
2022-08-05T17:42:53.066Z,74.53
2022-08-05T17:45:26.322Z,77.50
2022-08-05T17:48:09.059Z,84.29
2022-08-05T17:50:40.062Z,87.23
2022-08-05T17:53:10.221Z,94.24
2022-08-05T17:55:40.167Z,98.67
2022-08-05T17:58:12.577Z,100.00
2022-08-05T18:00:45.550Z,100.00
2022-08-05T18:06:11.009Z,100.00
2022-08-05T18:08:45.103Z,100.00
2022-08-05T18:11:24.349Z,100.00
2022-08-05T18:13:59.711Z,100.00
2022-08-05T18:16:29.344Z,100.00
2022-08-05T18:18:59.581Z,100.00
2022-08-05T18:22:07.824Z,100.00
2022-08-05T18:24:17.272Z,100.00
2022-08-05T18:26:46.459Z,100.00
2022-08-05T18:29:17.015Z,100.00
2022-08-05T18:31:45.888Z,100.00
2022-08-05T18:34:21.647Z,100.00
2022-08-05T18:36:50.737Z,100.00
2022-08-05T18:40:31.826Z,100.00
2022-08-05T18:42:11.696Z,100.00
2022-08-05T18:44:55.340Z,100.00
2022-08-05T18:47:26.618Z,100.00
2022-08-05T18:50:15.654Z,100.00
2022-08-05T18:52:51.249Z,100.00
2022-08-05T18:55:22.334Z,100.00
2022-08-05T18:57:53.816Z,100.00
2022-08-05T19:00:27.234Z,100.00
2022-08-05T19:03:03.926Z,100.00
2022-08-05T19:06:13.613Z,100.00
2022-08-05T19:08:30.543Z,100.00
2022-08-05T19:11:04.722Z,100.00
2022-08-05T19:13:36.189Z,100.00
2022-08-05T19:16:25.281Z,100.00
2022-08-05T19:18:56.766Z,100.00
2022-08-05T19:21:34.121Z,100.00
2022-08-05T19:24:09.028Z,100.00
2022-08-05T19:26:54.221Z,100.00
2022-08-05T19:29:35.461Z,100.00
2022-08-05T19:32:04.370Z,100.00
2022-08-05T19:34:33.430Z,100.00
2022-08-05T19:37:04.320Z,100.00
2022-08-05T19:39:33.279Z,100.00
2022-08-05T19:42:15.326Z,100.00
2022-08-05T19:44:45.117Z,100.00
2022-08-05T19:47:16.305Z,100.00
2022-08-05T19:49:46.036Z,100.00
2022-08-05T19:52:31.067Z,100.00
2022-08-05T19:55:07.324Z,100.00
2022-08-05T19:58:19.515Z,100.00
2022-08-05T20:00:39.962Z,100.00
2022-08-05T20:03:09.509Z,100.00
2022-08-05T20:05:50.159Z,100.00
2022-08-05T20:08:24.584Z,100.00
2022-08-05T20:10:53.590Z,100.00
2022-08-05T20:13:54.862Z,100.00
2022-08-05T20:16:12.192Z,100.00
2022-08-05T20:18:41.058Z,100.00
2022-08-05T20:21:10.257Z,100.00
2022-08-05T20:23:51.057Z,100.00
2022-08-05T20:26:24.716Z,100.00
2022-08-05T20:28:56.221Z,100.00
2022-08-05T20:31:28.570Z,100.00
2022-08-05T20:34:12.810Z,100.00
2022-08-05T20:36:43.445Z,100.00
2022-08-05T20:39:16.462Z,100.00
2022-08-05T20:41:47.849Z,100.00
2022-08-05T20:44:30.512Z,100.00
2022-08-05T20:47:01.644Z,100.00
2022-08-05T20:49:33.242Z,100.00
2022-08-05T20:52:07.104Z,100.00
2022-08-05T20:54:42.917Z,100.00
2022-08-05T20:57:43.095Z,100.00
2022-08-05T21:00:41.248Z,100.00
2022-08-05T21:03:07.202Z,100.00
2022-08-05T21:05:54.427Z,100.00
2022-08-05T21:08:26.676Z,100.00
2022-08-05T21:11:11.957Z,100.00
2022-08-05T21:13:55.747Z,100.00
2022-08-05T21:16:29.419Z,100.00
2022-08-05T21:19:00.923Z,100.00
2022-08-05T21:21:39.536Z,100.00
2022-08-05T21:24:15.729Z,100.00
2022-08-05T21:26:58.355Z,100.00
2022-08-05T21:29:31.585Z,100.00
2022-08-05T21:32:02.104Z,100.00
2022-08-05T21:34:33.151Z,100.00
2022-08-05T21:37:04.968Z,100.00
2022-08-05T21:39:34.603Z,100.00
2022-08-05T21:42:31.064Z,100.00
2022-08-05T21:44:59.568Z,100.00
2022-08-05T21:47:54.797Z,100.00
2022-08-05T21:50:17.895Z,100.00
2022-08-05T21:52:47.330Z,100.00
2022-08-05T21:55:18.489Z,100.00
2022-08-05T21:58:10.508Z,100.00
2022-08-05T22:00:51.114Z,100.00
2022-08-05T22:03:52.048Z,100.00
2022-08-05T22:06:09.754Z,100.00
2022-08-05T22:08:42.736Z,100.00
2022-08-05T22:11:15.637Z,100.00
2022-08-05T22:14:18.330Z,100.00
2022-08-05T22:16:51.165Z,100.00
2022-08-05T22:19:57.460Z,100.00
2022-08-05T22:22:10.590Z,100.00
2022-08-05T22:24:56.517Z,100.00
2022-08-05T22:28:08.250Z,100.00
2022-08-05T22:30:36.032Z,100.00
2022-08-05T22:33:15.547Z,100.00
2022-08-05T22:35:48.649Z,100.00
2022-08-05T22:38:18.932Z,100.00
2022-08-05T22:40:49.379Z,100.00
2022-08-05T22:43:37.331Z,100.00
2022-08-05T22:46:13.536Z,100.00
2022-08-05T22:48:52.131Z,100.00
2022-08-05T22:51:23.086Z,100.00
2022-08-05T22:54:09.996Z,100.00
2022-08-05T22:56:39.983Z,100.00
2022-08-05T22:59:46.189Z,100.00
2022-08-05T23:02:05.580Z,100.00
2022-08-05T23:04:36.736Z,100.00
2022-08-05T23:07:06.980Z,100.00
2022-08-05T23:09:58.229Z,100.00
2022-08-05T23:12:28.874Z,100.00
2022-08-05T23:14:58.040Z,100.00
2022-08-05T23:17:34.514Z,100.00
2022-08-05T23:20:16.626Z,100.00
2022-08-05T23:22:47.764Z,100.00
2022-08-05T23:25:51.132Z,100.00
2022-08-05T23:28:07.747Z,100.00
2022-08-05T23:30:40.614Z,100.00
2022-08-05T23:33:22.092Z,100.00
2022-08-05T23:35:55.939Z,100.00
2022-08-05T23:38:26.716Z,100.00
2022-08-05T23:40:55.003Z,100.00
2022-08-05T23:44:05.275Z,100.00
2022-08-05T23:46:20.216Z,100.00
2022-08-05T23:49:00.999Z,100.00
2022-08-05T23:51:48.395Z,100.00
2022-08-05T23:54:25.736Z,100.00
2022-08-05T23:57:04.005Z,100.00
